This is the latest recevied weather packets stored in our database for station/object KD0SBN-3. If no packets are shown the sender has not sent any weather packets the latest 10 day(s).
| Time | Temp. | Humidity | Pressure | Rain* | Wind** | Luminosity | Snow |
|---|---|---|---|---|---|---|---|
| 1778008692 | 7.78° C | 50% | 1018.9 hPa | 0 mm | - | 369 W/m² | - |
| 1778008390 | 7.78° C | 49% | 1018.7 hPa | 0 mm | - | 177 W/m² | - |
| 1778008086 | 8.33° C | 49% | 1018.9 hPa | 0 mm | - | 166 W/m² | - |
| 1778007782 | 7.78° C | 50% | 1018.7 hPa | 0 mm | - | 225 W/m² | - |
| 1778007478 | 7.78° C | 51% | 1018.3 hPa | 0 mm | - | 232 W/m² | - |
| 1778007174 | 7.78° C | 53% | 1018.5 hPa | 0 mm | - | 148 W/m² | - |
| 1778006870 | 7.22° C | 57% | 1018.5 hPa | 0 mm | - | 150 W/m² | - |
| 1778006568 | 7.78° C | 53% | 1018.2 hPa | 0 mm | - | 257 W/m² | - |
| 1778006265 | 8.33° C | 54% | 1018.7 hPa | 0 mm | - | 268 W/m² | - |
| 1778005962 | 7.78° C | 54% | 1018.9 hPa | 0 mm | - | 258 W/m² | - |
| 1778005658 | 8.89° C | 53% | 1018.6 hPa | 0 mm | - | 274 W/m² | - |
| 1778005355 | 9.44° C | 52% | 1018.6 hPa | 0 mm | - | 550 W/m² | - |
| 1778005052 | 8.89° C | 54% | 1018.9 hPa | 0 mm | - | 380 W/m² | - |
| 1778004750 | 8.33° C | 55% | 1018.7 hPa | 0 mm | - | 432 W/m² | - |
| 1778004446 | 8.89° C | 54% | 1019 hPa | 0 mm | - | 271 W/m² | - |
| 1778004142 | 9.44° C | 51% | 1018.9 hPa | 0 mm | - | 165 W/m² | - |
| 1778003839 | 10° C | 50% | 1018.7 hPa | 0 mm | - | 560 W/m² | - |
| 1778003535 | 8.89° C | 54% | 1019.1 hPa | 0 mm | - | 302 W/m² | - |
| 1778003232 | 8.89° C | 51% | 1019 hPa | 0 mm | - | 288 W/m² | - |
| 1778002929 | 8.33° C | 54% | 1019 hPa | 0 mm | - | 514 W/m² | - |
| 1778002625 | 7.78° C | 58% | 1019.5 hPa | 0 mm | - | 314 W/m² | - |
| 1778002322 | 7.22° C | 59% | 1019.4 hPa | 0 mm | - | 224 W/m² | - |
| 1778002019 | 7.78° C | 59% | 1019.4 hPa | 0 mm | - | 354 W/m² | - |
| 1778001716 | 7.78° C | 62% | 1019.4 hPa | 0 mm | - | 397 W/m² | - |
| 1778001415 | 7.78° C | 60% | 1019.5 hPa | 0 mm | - | 392 W/m² | - |
* Rain latest hour (hover to see other rain measurements)
** Current wind speed in m/s (hover to see current wind gust speed)